sensor_id;sensor_type;location;lat;lon;timestamp;P1;durP1;ratioP1;P2;durP2;ratioP2
35225;SDS011;21813;49.686;21.766;2023-03-12T00:01:42;18.27;;;10.38;;
35225;SDS011;21813;49.686;21.766;2023-03-12T00:04:08;21.88;;;10.02;;
35225;SDS011;21813;49.686;21.766;2023-03-12T00:06:36;19.58;;;10.40;;
35225;SDS011;21813;49.686;21.766;2023-03-12T00:09:02;17.33;;;9.27;;
35225;SDS011;21813;49.686;21.766;2023-03-12T00:11:30;16.98;;;8.95;;
35225;SDS011;21813;49.686;21.766;2023-03-12T00:13:57;22.15;;;9.80;;
35225;SDS011;21813;49.686;21.766;2023-03-12T00:16:25;15.02;;;9.18;;
35225;SDS011;21813;49.686;21.766;2023-03-12T00:18:53;22.23;;;9.25;;
35225;SDS011;21813;49.686;21.766;2023-03-12T00:21:21;18.05;;;9.95;;
35225;SDS011;21813;49.686;21.766;2023-03-12T00:23:48;18.48;;;10.18;;
35225;SDS011;21813;49.686;21.766;2023-03-12T00:26:15;14.85;;;9.63;;
35225;SDS011;21813;49.686;21.766;2023-03-12T00:28:42;20.45;;;10.20;;
35225;SDS011;21813;49.686;21.766;2023-03-12T00:33:43;19.95;;;10.55;;
35225;SDS011;21813;49.686;21.766;2023-03-12T00:36:10;19.50;;;10.45;;
35225;SDS011;21813;49.686;21.766;2023-03-12T00:38:36;18.55;;;11.38;;
35225;SDS011;21813;49.686;21.766;2023-03-12T00:41:03;16.08;;;10.15;;
35225;SDS011;21813;49.686;21.766;2023-03-12T00:43:29;21.98;;;12.07;;
35225;SDS011;21813;49.686;21.766;2023-03-12T00:45:55;16.05;;;10.43;;
35225;SDS011;21813;49.686;21.766;2023-03-12T00:48:21;16.92;;;10.02;;
35225;SDS011;21813;49.686;21.766;2023-03-12T00:50:48;22.67;;;10.95;;
35225;SDS011;21813;49.686;21.766;2023-03-12T00:53:13;18.92;;;10.93;;
35225;SDS011;21813;49.686;21.766;2023-03-12T00:55:40;16.05;;;10.57;;
35225;SDS011;21813;49.686;21.766;2023-03-12T00:58:06;21.40;;;11.73;;
35225;SDS011;21813;49.686;21.766;2023-03-12T01:00:36;17.35;;;11.68;;
35225;SDS011;21813;49.686;21.766;2023-03-12T01:03:02;18.52;;;10.90;;
35225;SDS011;21813;49.686;21.766;2023-03-12T01:05:29;18.40;;;10.98;;
35225;SDS011;21813;49.686;21.766;2023-03-12T01:07:56;24.13;;;12.00;;
35225;SDS011;21813;49.686;21.766;2023-03-12T01:10:24;17.98;;;10.88;;
35225;SDS011;21813;49.686;21.766;2023-03-12T01:12:50;19.45;;;11.98;;
35225;SDS011;21813;49.686;21.766;2023-03-12T01:15:19;20.55;;;11.80;;
35225;SDS011;21813;49.686;21.766;2023-03-12T01:17:45;18.77;;;10.80;;
35225;SDS011;21813;49.686;21.766;2023-03-12T01:20:12;20.95;;;11.13;;
35225;SDS011;21813;49.686;21.766;2023-03-12T01:22:38;18.25;;;10.05;;
35225;SDS011;21813;49.686;21.766;2023-03-12T01:25:05;18.70;;;10.40;;
35225;SDS011;21813;49.686;21.766;2023-03-12T01:27:31;19.23;;;10.30;;
35225;SDS011;21813;49.686;21.766;2023-03-12T01:29:58;18.13;;;11.52;;
35225;SDS011;21813;49.686;21.766;2023-03-12T01:32:24;15.65;;;10.52;;
35225;SDS011;21813;49.686;21.766;2023-03-12T01:34:50;19.52;;;11.38;;
35225;SDS011;21813;49.686;21.766;2023-03-12T01:37:16;18.98;;;10.55;;
35225;SDS011;21813;49.686;21.766;2023-03-12T01:39:42;17.63;;;11.07;;
35225;SDS011;21813;49.686;21.766;2023-03-12T01:42:07;19.60;;;11.93;;
35225;SDS011;21813;49.686;21.766;2023-03-12T01:47:18;15.75;;;9.95;;
35225;SDS011;21813;49.686;21.766;2023-03-12T01:49:44;17.50;;;10.63;;
35225;SDS011;21813;49.686;21.766;2023-03-12T01:52:27;20.13;;;10.20;;
35225;SDS011;21813;49.686;21.766;2023-03-12T01:55:12;17.70;;;9.73;;
35225;SDS011;21813;49.686;21.766;2023-03-12T01:57:53;18.20;;;11.30;;
35225;SDS011;21813;49.686;21.766;2023-03-12T02:00:24;16.52;;;9.45;;
35225;SDS011;21813;49.686;21.766;2023-03-12T02:02:51;18.33;;;9.35;;
35225;SDS011;21813;49.686;21.766;2023-03-12T02:10:23;16.88;;;8.88;;
35225;SDS011;21813;49.686;21.766;2023-03-12T02:12:50;17.52;;;9.15;;
35225;SDS011;21813;49.686;21.766;2023-03-12T02:15:18;16.55;;;9.30;;
35225;SDS011;21813;49.686;21.766;2023-03-12T02:17:44;17.02;;;10.02;;
35225;SDS011;21813;49.686;21.766;2023-03-12T02:20:27;18.73;;;9.60;;
35225;SDS011;21813;49.686;21.766;2023-03-12T02:28:04;20.30;;;9.85;;
35225;SDS011;21813;49.686;21.766;2023-03-12T02:30:33;17.10;;;10.82;;
35225;SDS011;21813;49.686;21.766;2023-03-12T02:33:01;24.30;;;11.38;;
35225;SDS011;21813;49.686;21.766;2023-03-12T02:35:32;16.70;;;10.57;;
35225;SDS011;21813;49.686;21.766;2023-03-12T02:37:59;17.17;;;9.88;;
35225;SDS011;21813;49.686;21.766;2023-03-12T02:45:34;17.92;;;10.07;;
35225;SDS011;21813;49.686;21.766;2023-03-12T02:48:01;16.05;;;10.35;;
35225;SDS011;21813;49.686;21.766;2023-03-12T02:50:30;16.08;;;10.32;;
35225;SDS011;21813;49.686;21.766;2023-03-12T02:52:57;14.23;;;9.60;;
35225;SDS011;21813;49.686;21.766;2023-03-12T02:55:23;19.25;;;11.25;;
35225;SDS011;21813;49.686;21.766;2023-03-12T02:57:51;16.98;;;10.02;;
35225;SDS011;21813;49.686;21.766;2023-03-12T03:00:17;16.85;;;9.10;;
35225;SDS011;21813;49.686;21.766;2023-03-12T03:02:45;15.30;;;9.77;;
35225;SDS011;21813;49.686;21.766;2023-03-12T03:05:11;17.70;;;9.35;;
35225;SDS011;21813;49.686;21.766;2023-03-12T03:07:38;18.90;;;9.63;;
35225;SDS011;21813;49.686;21.766;2023-03-12T03:10:04;17.90;;;9.43;;
35225;SDS011;21813;49.686;21.766;2023-03-12T03:12:32;18.10;;;10.00;;
35225;SDS011;21813;49.686;21.766;2023-03-12T03:14:59;17.75;;;10.05;;
35225;SDS011;21813;49.686;21.766;2023-03-12T03:17:25;19.48;;;10.23;;
35225;SDS011;21813;49.686;21.766;2023-03-12T03:19:51;22.33;;;10.98;;
35225;SDS011;21813;49.686;21.766;2023-03-12T03:22:18;19.48;;;10.50;;
35225;SDS011;21813;49.686;21.766;2023-03-12T03:24:44;21.75;;;12.07;;
35225;SDS011;21813;49.686;21.766;2023-03-12T03:27:11;19.33;;;11.10;;
35225;SDS011;21813;49.686;21.766;2023-03-12T03:29:37;20.90;;;11.77;;
35225;SDS011;21813;49.686;21.766;2023-03-12T03:32:03;23.42;;;12.40;;
35225;SDS011;21813;49.686;21.766;2023-03-12T03:34:29;23.08;;;12.25;;
35225;SDS011;21813;49.686;21.766;2023-03-12T03:36:56;22.95;;;12.07;;
35225;SDS011;21813;49.686;21.766;2023-03-12T03:39:22;24.23;;;13.70;;
35225;SDS011;21813;49.686;21.766;2023-03-12T03:41:50;19.40;;;11.68;;
35225;SDS011;21813;49.686;21.766;2023-03-12T03:44:16;20.88;;;12.43;;
35225;SDS011;21813;49.686;21.766;2023-03-12T03:46:44;20.33;;;12.63;;
35225;SDS011;21813;49.686;21.766;2023-03-12T03:49:12;24.65;;;12.68;;
35225;SDS011;21813;49.686;21.766;2023-03-12T03:51:38;24.38;;;13.23;;
35225;SDS011;21813;49.686;21.766;2023-03-12T03:54:07;28.25;;;13.10;;
35225;SDS011;21813;49.686;21.766;2023-03-12T03:56:34;21.33;;;13.10;;
35225;SDS011;21813;49.686;21.766;2023-03-12T03:59:00;22.15;;;12.25;;
35225;SDS011;21813;49.686;21.766;2023-03-12T04:01:27;24.33;;;12.10;;
35225;SDS011;21813;49.686;21.766;2023-03-12T04:03:53;27.13;;;12.80;;
35225;SDS011;21813;49.686;21.766;2023-03-12T04:06:19;23.60;;;12.32;;
35225;SDS011;21813;49.686;21.766;2023-03-12T04:08:51;21.58;;;11.35;;
35225;SDS011;21813;49.686;21.766;2023-03-12T04:11:18;30.25;;;13.88;;
35225;SDS011;21813;49.686;21.766;2023-03-12T04:13:56;20.73;;;12.18;;
35225;SDS011;21813;49.686;21.766;2023-03-12T04:16:24;21.48;;;12.35;;
35225;SDS011;21813;49.686;21.766;2023-03-12T04:18:49;20.63;;;11.45;;
35225;SDS011;21813;49.686;21.766;2023-03-12T04:21:15;19.05;;;10.85;;
35225;SDS011;21813;49.686;21.766;2023-03-12T04:23:41;23.65;;;12.45;;
35225;SDS011;21813;49.686;21.766;2023-03-12T04:26:08;20.58;;;11.95;;
35225;SDS011;21813;49.686;21.766;2023-03-12T04:28:34;22.55;;;12.07;;
35225;SDS011;21813;49.686;21.766;2023-03-12T04:31:05;25.52;;;12.30;;
35225;SDS011;21813;49.686;21.766;2023-03-12T04:33:33;22.70;;;11.63;;
35225;SDS011;21813;49.686;21.766;2023-03-12T04:36:00;20.70;;;12.48;;
35225;SDS011;21813;49.686;21.766;2023-03-12T04:38:26;23.33;;;12.70;;
35225;SDS011;21813;49.686;21.766;2023-03-12T04:43:31;22.52;;;12.77;;
35225;SDS011;21813;49.686;21.766;2023-03-12T04:46:00;23.25;;;13.02;;
35225;SDS011;21813;49.686;21.766;2023-03-12T04:48:26;24.42;;;14.32;;
35225;SDS011;21813;49.686;21.766;2023-03-12T04:50:52;27.05;;;14.52;;
35225;SDS011;21813;49.686;21.766;2023-03-12T04:53:18;21.65;;;13.75;;
35225;SDS011;21813;49.686;21.766;2023-03-12T04:55:45;23.10;;;13.00;;
35225;SDS011;21813;49.686;21.766;2023-03-12T04:58:11;21.17;;;13.18;;
35225;SDS011;21813;49.686;21.766;2023-03-12T05:00:39;21.13;;;12.63;;
35225;SDS011;21813;49.686;21.766;2023-03-12T05:03:06;20.70;;;12.00;;
35225;SDS011;21813;49.686;21.766;2023-03-12T05:05:33;21.67;;;13.02;;
35225;SDS011;21813;49.686;21.766;2023-03-12T05:08:00;21.55;;;12.70;;
35225;SDS011;21813;49.686;21.766;2023-03-12T05:10:27;27.42;;;13.52;;
35225;SDS011;21813;49.686;21.766;2023-03-12T05:12:53;25.10;;;13.80;;
35225;SDS011;21813;49.686;21.766;2023-03-12T05:15:21;24.20;;;13.77;;
35225;SDS011;21813;49.686;21.766;2023-03-12T05:17:47;25.15;;;13.18;;
35225;SDS011;21813;49.686;21.766;2023-03-12T05:20:13;23.27;;;11.98;;
35225;SDS011;21813;49.686;21.766;2023-03-12T05:22:39;24.15;;;12.70;;
35225;SDS011;21813;49.686;21.766;2023-03-12T05:25:05;23.70;;;12.73;;
35225;SDS011;21813;49.686;21.766;2023-03-12T05:27:31;19.48;;;11.73;;
35225;SDS011;21813;49.686;21.766;2023-03-12T05:29:58;20.98;;;11.70;;
35225;SDS011;21813;49.686;21.766;2023-03-12T05:32:23;20.92;;;11.50;;
35225;SDS011;21813;49.686;21.766;2023-03-12T05:34:50;21.33;;;12.95;;
35225;SDS011;21813;49.686;21.766;2023-03-12T05:37:15;18.70;;;12.07;;
35225;SDS011;21813;49.686;21.766;2023-03-12T05:39:42;18.73;;;12.35;;
35225;SDS011;21813;49.686;21.766;2023-03-12T05:42:11;22.08;;;11.90;;
35225;SDS011;21813;49.686;21.766;2023-03-12T05:44:38;20.52;;;11.27;;
35225;SDS011;21813;49.686;21.766;2023-03-12T05:47:05;23.65;;;12.10;;
35225;SDS011;21813;49.686;21.766;2023-03-12T05:49:32;20.05;;;11.20;;
35225;SDS011;21813;49.686;21.766;2023-03-12T05:51:58;19.60;;;11.70;;
35225;SDS011;21813;49.686;21.766;2023-03-12T05:54:24;18.50;;;11.57;;
35225;SDS011;21813;49.686;21.766;2023-03-12T05:56:50;19.45;;;11.90;;
35225;SDS011;21813;49.686;21.766;2023-03-12T05:59:18;21.35;;;11.27;;
35225;SDS011;21813;49.686;21.766;2023-03-12T06:01:43;15.05;;;9.48;;
35225;SDS011;21813;49.686;21.766;2023-03-12T06:04:11;19.08;;;10.65;;
35225;SDS011;21813;49.686;21.766;2023-03-12T06:06:37;16.10;;;9.75;;
35225;SDS011;21813;49.686;21.766;2023-03-12T06:09:04;14.38;;;9.07;;
35225;SDS011;21813;49.686;21.766;2023-03-12T06:11:33;15.02;;;10.07;;
35225;SDS011;21813;49.686;21.766;2023-03-12T06:14:03;14.40;;;9.38;;
35225;SDS011;21813;49.686;21.766;2023-03-12T06:16:32;15.63;;;9.30;;
35225;SDS011;21813;49.686;21.766;2023-03-12T06:19:00;14.43;;;8.50;;
35225;SDS011;21813;49.686;21.766;2023-03-12T06:21:30;13.38;;;9.00;;
35225;SDS011;21813;49.686;21.766;2023-03-12T06:23:58;15.65;;;8.90;;
35225;SDS011;21813;49.686;21.766;2023-03-12T06:26:24;15.05;;;8.25;;
35225;SDS011;21813;49.686;21.766;2023-03-12T06:28:52;15.00;;;9.23;;
35225;SDS011;21813;49.686;21.766;2023-03-12T06:31:19;11.70;;;7.88;;
35225;SDS011;21813;49.686;21.766;2023-03-12T06:33:47;16.10;;;8.27;;
35225;SDS011;21813;49.686;21.766;2023-03-12T06:36:13;13.25;;;8.57;;
35225;SDS011;21813;49.686;21.766;2023-03-12T06:38:40;15.05;;;9.00;;
35225;SDS011;21813;49.686;21.766;2023-03-12T06:41:07;9.43;;;7.70;;
35225;SDS011;21813;49.686;21.766;2023-03-12T06:43:37;13.35;;;8.23;;
35225;SDS011;21813;49.686;21.766;2023-03-12T06:46:03;15.88;;;8.60;;
35225;SDS011;21813;49.686;21.766;2023-03-12T06:48:32;12.15;;;7.53;;
35225;SDS011;21813;49.686;21.766;2023-03-12T06:51:03;12.40;;;7.47;;
35225;SDS011;21813;49.686;21.766;2023-03-12T06:53:37;13.85;;;7.75;;
35225;SDS011;21813;49.686;21.766;2023-03-12T06:56:09;12.07;;;7.03;;
35225;SDS011;21813;49.686;21.766;2023-03-12T06:58:39;10.25;;;6.57;;
35225;SDS011;21813;49.686;21.766;2023-03-12T07:01:12;9.63;;;5.90;;
35225;SDS011;21813;49.686;21.766;2023-03-12T07:16:39;9.15;;;5.50;;
35225;SDS011;21813;49.686;21.766;2023-03-12T07:19:07;9.80;;;6.30;;
35225;SDS011;21813;49.686;21.766;2023-03-12T07:21:35;7.53;;;5.90;;
35225;SDS011;21813;49.686;21.766;2023-03-12T07:24:01;9.63;;;6.25;;
35225;SDS011;21813;49.686;21.766;2023-03-12T07:26:34;9.02;;;5.75;;
35225;SDS011;21813;49.686;21.766;2023-03-12T07:29:17;7.25;;;5.00;;
35225;SDS011;21813;49.686;21.766;2023-03-12T07:31:43;8.07;;;5.78;;
35225;SDS011;21813;49.686;21.766;2023-03-12T07:34:10;10.32;;;7.22;;
35225;SDS011;21813;49.686;21.766;2023-03-12T07:36:35;10.07;;;5.70;;
35225;SDS011;21813;49.686;21.766;2023-03-12T07:39:16;8.05;;;5.90;;
35225;SDS011;21813;49.686;21.766;2023-03-12T07:41:45;7.45;;;4.97;;
35225;SDS011;21813;49.686;21.766;2023-03-12T07:44:10;8.63;;;4.90;;
35225;SDS011;21813;49.686;21.766;2023-03-12T07:46:37;8.02;;;5.60;;
35225;SDS011;21813;49.686;21.766;2023-03-12T07:49:02;11.60;;;5.55;;
35225;SDS011;21813;49.686;21.766;2023-03-12T07:51:30;8.75;;;5.32;;
35225;SDS011;21813;49.686;21.766;2023-03-12T07:53:55;9.70;;;5.15;;
35225;SDS011;21813;49.686;21.766;2023-03-12T07:56:22;7.95;;;4.82;;
35225;SDS011;21813;49.686;21.766;2023-03-12T07:58:48;8.48;;;4.55;;
35225;SDS011;21813;49.686;21.766;2023-03-12T08:01:14;5.57;;;4.18;;
35225;SDS011;21813;49.686;21.766;2023-03-12T08:03:40;7.65;;;4.75;;
35225;SDS011;21813;49.686;21.766;2023-03-12T08:06:06;7.30;;;4.88;;
35225;SDS011;21813;49.686;21.766;2023-03-12T08:08:32;7.63;;;4.63;;
35225;SDS011;21813;49.686;21.766;2023-03-12T08:10:58;6.22;;;4.40;;
35225;SDS011;21813;49.686;21.766;2023-03-12T08:13:28;9.40;;;5.05;;
35225;SDS011;21813;49.686;21.766;2023-03-12T08:15:56;5.15;;;4.20;;
35225;SDS011;21813;49.686;21.766;2023-03-12T08:18:22;10.18;;;4.85;;
35225;SDS011;21813;49.686;21.766;2023-03-12T08:20:50;5.20;;;3.78;;
35225;SDS011;21813;49.686;21.766;2023-03-12T08:23:17;6.25;;;4.35;;
35225;SDS011;21813;49.686;21.766;2023-03-12T08:25:45;6.70;;;4.20;;
35225;SDS011;21813;49.686;21.766;2023-03-12T08:28:12;8.15;;;4.55;;
35225;SDS011;21813;49.686;21.766;2023-03-12T08:30:45;7.32;;;4.65;;
35225;SDS011;21813;49.686;21.766;2023-03-12T08:33:14;7.85;;;4.38;;
35225;SDS011;21813;49.686;21.766;2023-03-12T08:35:41;8.32;;;4.80;;
35225;SDS011;21813;49.686;21.766;2023-03-12T08:38:07;7.68;;;4.68;;
35225;SDS011;21813;49.686;21.766;2023-03-12T08:40:34;6.38;;;4.15;;
35225;SDS011;21813;49.686;21.766;2023-03-12T08:43:00;6.95;;;4.75;;
35225;SDS011;21813;49.686;21.766;2023-03-12T08:45:26;6.97;;;4.68;;
35225;SDS011;21813;49.686;21.766;2023-03-12T08:47:52;5.93;;;3.95;;
35225;SDS011;21813;49.686;21.766;2023-03-12T08:50:18;8.02;;;4.30;;
35225;SDS011;21813;49.686;21.766;2023-03-12T08:52:46;9.10;;;4.35;;
35225;SDS011;21813;49.686;21.766;2023-03-12T08:55:12;8.43;;;3.97;;
35225;SDS011;21813;49.686;21.766;2023-03-12T08:57:37;13.70;;;5.00;;
35225;SDS011;21813;49.686;21.766;2023-03-12T09:00:05;12.20;;;5.35;;
35225;SDS011;21813;49.686;21.766;2023-03-12T09:02:39;6.30;;;3.78;;
35225;SDS011;21813;49.686;21.766;2023-03-12T09:05:10;9.43;;;4.57;;
35225;SDS011;21813;49.686;21.766;2023-03-12T09:07:38;5.60;;;3.47;;
35225;SDS011;21813;49.686;21.766;2023-03-12T09:10:06;5.35;;;3.88;;
35225;SDS011;21813;49.686;21.766;2023-03-12T09:12:32;7.53;;;3.90;;
35225;SDS011;21813;49.686;21.766;2023-03-12T09:14:58;5.15;;;3.65;;
35225;SDS011;21813;49.686;21.766;2023-03-12T09:17:24;6.10;;;3.67;;
35225;SDS011;21813;49.686;21.766;2023-03-12T09:19:50;5.90;;;3.45;;
35225;SDS011;21813;49.686;21.766;2023-03-12T09:22:16;5.85;;;3.55;;
35225;SDS011;21813;49.686;21.766;2023-03-12T09:24:42;5.78;;;3.60;;
35225;SDS011;21813;49.686;21.766;2023-03-12T09:27:07;9.82;;;3.47;;
35225;SDS011;21813;49.686;21.766;2023-03-12T09:29:35;8.45;;;3.53;;
35225;SDS011;21813;49.686;21.766;2023-03-12T09:32:04;7.50;;;3.70;;
35225;SDS011;21813;49.686;21.766;2023-03-12T09:34:31;6.43;;;3.58;;
35225;SDS011;21813;49.686;21.766;2023-03-12T09:36:56;3.83;;;2.75;;
35225;SDS011;21813;49.686;21.766;2023-03-12T09:39:22;7.72;;;3.45;;
35225;SDS011;21813;49.686;21.766;2023-03-12T09:41:48;4.32;;;2.72;;
35225;SDS011;21813;49.686;21.766;2023-03-12T09:44:41;4.40;;;3.35;;
35225;SDS011;21813;49.686;21.766;2023-03-12T09:47:15;4.50;;;2.85;;
35225;SDS011;21813;49.686;21.766;2023-03-12T09:53:02;4.85;;;3.20;;
35225;SDS011;21813;49.686;21.766;2023-03-12T09:55:37;5.28;;;3.25;;
35225;SDS011;21813;49.686;21.766;2023-03-12T09:58:09;6.00;;;3.13;;
35225;SDS011;21813;49.686;21.766;2023-03-12T10:00:39;4.90;;;3.40;;
35225;SDS011;21813;49.686;21.766;2023-03-12T10:06:05;7.05;;;3.50;;
35225;SDS011;21813;49.686;21.766;2023-03-12T10:08:41;8.50;;;3.95;;
35225;SDS011;21813;49.686;21.766;2023-03-12T10:16:48;5.93;;;2.85;;
35225;SDS011;21813;49.686;21.766;2023-03-12T10:19:20;5.47;;;2.75;;
35225;SDS011;21813;49.686;21.766;2023-03-12T10:26:56;5.90;;;3.10;;
35225;SDS011;21813;49.686;21.766;2023-03-12T10:29:30;5.22;;;2.92;;
35225;SDS011;21813;49.686;21.766;2023-03-12T10:32:04;4.20;;;2.72;;
35225;SDS011;21813;49.686;21.766;2023-03-12T10:39:48;2.92;;;2.08;;
35225;SDS011;21813;49.686;21.766;2023-03-12T10:42:18;4.53;;;2.40;;
35225;SDS011;21813;49.686;21.766;2023-03-12T10:44:46;5.63;;;2.42;;
35225;SDS011;21813;49.686;21.766;2023-03-12T10:47:24;3.50;;;2.25;;
35225;SDS011;21813;49.686;21.766;2023-03-12T10:50:13;4.72;;;2.50;;
35225;SDS011;21813;49.686;21.766;2023-03-12T10:52:48;4.22;;;2.30;;
35225;SDS011;21813;49.686;21.766;2023-03-12T10:57:49;4.25;;;2.75;;
35225;SDS011;21813;49.686;21.766;2023-03-12T11:00:19;5.57;;;2.30;;
35225;SDS011;21813;49.686;21.766;2023-03-12T11:03:04;2.45;;;1.85;;
35225;SDS011;21813;49.686;21.766;2023-03-12T11:08:03;6.20;;;2.63;;
35225;SDS011;21813;49.686;21.766;2023-03-12T11:10:43;5.03;;;2.22;;
35225;SDS011;21813;49.686;21.766;2023-03-12T11:19:01;7.03;;;1.90;;
35225;SDS011;21813;49.686;21.766;2023-03-12T11:21:30;5.75;;;2.55;;
35225;SDS011;21813;49.686;21.766;2023-03-12T11:24:13;4.22;;;2.38;;
35225;SDS011;21813;49.686;21.766;2023-03-12T11:26:46;2.33;;;1.85;;
35225;SDS011;21813;49.686;21.766;2023-03-12T11:29:27;3.67;;;2.30;;
35225;SDS011;21813;49.686;21.766;2023-03-12T11:34:26;3.63;;;2.35;;
35225;SDS011;21813;49.686;21.766;2023-03-12T11:36:57;5.10;;;2.47;;
35225;SDS011;21813;49.686;21.766;2023-03-12T11:53:16;3.85;;;2.30;;
35225;SDS011;21813;49.686;21.766;2023-03-12T11:56:00;5.40;;;2.22;;
35225;SDS011;21813;49.686;21.766;2023-03-12T11:58:51;5.18;;;2.13;;
35225;SDS011;21813;49.686;21.766;2023-03-12T12:01:24;3.35;;;2.03;;
35225;SDS011;21813;49.686;21.766;2023-03-12T12:04:18;2.10;;;1.90;;
35225;SDS011;21813;49.686;21.766;2023-03-12T12:15:06;2.88;;;1.95;;
35225;SDS011;21813;49.686;21.766;2023-03-12T12:34:17;6.32;;;2.20;;
35225;SDS011;21813;49.686;21.766;2023-03-12T12:37:30;4.68;;;1.98;;
35225;SDS011;21813;49.686;21.766;2023-03-12T12:47:50;6.90;;;2.75;;
35225;SDS011;21813;49.686;21.766;2023-03-12T12:50:21;2.42;;;1.80;;
35225;SDS011;21813;49.686;21.766;2023-03-12T12:52:56;5.03;;;2.72;;
35225;SDS011;21813;49.686;21.766;2023-03-12T12:55:32;4.63;;;2.30;;
35225;SDS011;21813;49.686;21.766;2023-03-12T13:01:10;3.63;;;2.05;;
35225;SDS011;21813;49.686;21.766;2023-03-12T13:03:39;3.35;;;2.25;;
35225;SDS011;21813;49.686;21.766;2023-03-12T13:06:06;4.25;;;2.28;;
35225;SDS011;21813;49.686;21.766;2023-03-12T13:10:58;2.50;;;1.75;;
35225;SDS011;21813;49.686;21.766;2023-03-12T13:13:29;4.57;;;2.20;;
35225;SDS011;21813;49.686;21.766;2023-03-12T13:19:41;3.28;;;2.25;;
35225;SDS011;21813;49.686;21.766;2023-03-12T13:27:17;2.40;;;1.83;;
35225;SDS011;21813;49.686;21.766;2023-03-12T13:29:53;2.72;;;1.90;;
35225;SDS011;21813;49.686;21.766;2023-03-12T13:35:06;2.95;;;2.28;;
35225;SDS011;21813;49.686;21.766;2023-03-12T13:48:16;4.88;;;2.15;;
35225;SDS011;21813;49.686;21.766;2023-03-12T13:50:49;4.57;;;2.97;;
35225;SDS011;21813;49.686;21.766;2023-03-12T13:53:32;3.53;;;2.00;;
35225;SDS011;21813;49.686;21.766;2023-03-12T13:56:01;2.63;;;2.15;;
35225;SDS011;21813;49.686;21.766;2023-03-12T14:01:05;2.03;;;1.75;;
35225;SDS011;21813;49.686;21.766;2023-03-12T14:03:39;3.85;;;2.10;;
35225;SDS011;21813;49.686;21.766;2023-03-12T14:06:11;3.40;;;2.17;;
35225;SDS011;21813;49.686;21.766;2023-03-12T14:11:19;3.45;;;2.28;;
35225;SDS011;21813;49.686;21.766;2023-03-12T14:16:50;2.92;;;1.85;;
35225;SDS011;21813;49.686;21.766;2023-03-12T14:19:21;4.28;;;2.15;;
35225;SDS011;21813;49.686;21.766;2023-03-12T14:21:49;5.68;;;2.75;;
35225;SDS011;21813;49.686;21.766;2023-03-12T14:24:22;2.40;;;1.95;;
35225;SDS011;21813;49.686;21.766;2023-03-12T14:26:52;4.53;;;2.10;;
35225;SDS011;21813;49.686;21.766;2023-03-12T14:29:20;7.85;;;4.60;;
35225;SDS011;21813;49.686;21.766;2023-03-12T14:32:15;4.57;;;2.38;;
35225;SDS011;21813;49.686;21.766;2023-03-12T14:35:32;5.25;;;2.33;;
35225;SDS011;21813;49.686;21.766;2023-03-12T14:40:17;2.88;;;2.42;;
35225;SDS011;21813;49.686;21.766;2023-03-12T14:42:44;4.43;;;2.38;;
35225;SDS011;21813;49.686;21.766;2023-03-12T14:45:11;4.97;;;2.45;;
35225;SDS011;21813;49.686;21.766;2023-03-12T14:50:16;5.47;;;2.30;;
35225;SDS011;21813;49.686;21.766;2023-03-12T14:52:43;3.85;;;2.20;;
35225;SDS011;21813;49.686;21.766;2023-03-12T14:55:11;4.78;;;2.40;;
35225;SDS011;21813;49.686;21.766;2023-03-12T14:57:42;4.78;;;2.20;;
35225;SDS011;21813;49.686;21.766;2023-03-12T15:00:25;5.40;;;2.38;;
35225;SDS011;21813;49.686;21.766;2023-03-12T15:02:52;3.05;;;2.03;;
35225;SDS011;21813;49.686;21.766;2023-03-12T15:05:20;5.90;;;2.90;;
35225;SDS011;21813;49.686;21.766;2023-03-12T15:07:48;7.43;;;2.55;;
35225;SDS011;21813;49.686;21.766;2023-03-12T15:10:20;4.07;;;2.25;;
35225;SDS011;21813;49.686;21.766;2023-03-12T15:12:48;3.38;;;2.22;;
35225;SDS011;21813;49.686;21.766;2023-03-12T15:15:25;6.88;;;2.72;;
35225;SDS011;21813;49.686;21.766;2023-03-12T15:17:52;2.22;;;2.00;;
35225;SDS011;21813;49.686;21.766;2023-03-12T15:20:18;3.40;;;2.13;;
35225;SDS011;21813;49.686;21.766;2023-03-12T15:22:47;4.25;;;2.47;;
35225;SDS011;21813;49.686;21.766;2023-03-12T15:25:28;7.28;;;3.38;;
35225;SDS011;21813;49.686;21.766;2023-03-12T15:28:02;6.25;;;2.85;;
35225;SDS011;21813;49.686;21.766;2023-03-12T15:30:35;4.35;;;2.60;;
35225;SDS011;21813;49.686;21.766;2023-03-12T15:33:21;7.70;;;2.40;;
35225;SDS011;21813;49.686;21.766;2023-03-12T15:38:32;4.50;;;2.78;;
35225;SDS011;21813;49.686;21.766;2023-03-12T15:41:04;5.32;;;2.85;;
35225;SDS011;21813;49.686;21.766;2023-03-12T15:43:32;3.58;;;2.55;;
35225;SDS011;21813;49.686;21.766;2023-03-12T15:45:58;5.07;;;2.92;;
35225;SDS011;21813;49.686;21.766;2023-03-12T15:48:30;7.95;;;2.83;;
35225;SDS011;21813;49.686;21.766;2023-03-12T15:50:59;6.65;;;2.72;;
35225;SDS011;21813;49.686;21.766;2023-03-12T15:53:26;5.18;;;2.90;;
35225;SDS011;21813;49.686;21.766;2023-03-12T15:56:05;5.55;;;3.35;;
35225;SDS011;21813;49.686;21.766;2023-03-12T15:58:41;5.47;;;3.20;;
35225;SDS011;21813;49.686;21.766;2023-03-12T16:03:34;5.10;;;3.13;;
35225;SDS011;21813;49.686;21.766;2023-03-12T16:06:00;5.32;;;2.80;;
35225;SDS011;21813;49.686;21.766;2023-03-12T16:08:29;8.75;;;3.88;;
35225;SDS011;21813;49.686;21.766;2023-03-12T16:11:01;9.32;;;4.15;;
35225;SDS011;21813;49.686;21.766;2023-03-12T16:13:28;8.32;;;3.95;;
35225;SDS011;21813;49.686;21.766;2023-03-12T16:15:56;5.15;;;3.20;;
35225;SDS011;21813;49.686;21.766;2023-03-12T16:18:22;14.18;;;4.40;;
35225;SDS011;21813;49.686;21.766;2023-03-12T16:20:50;7.30;;;4.38;;
35225;SDS011;21813;49.686;21.766;2023-03-12T16:23:16;6.88;;;3.78;;
35225;SDS011;21813;49.686;21.766;2023-03-12T16:25:50;10.93;;;4.90;;
35225;SDS011;21813;49.686;21.766;2023-03-12T16:28:18;9.80;;;4.50;;
35225;SDS011;21813;49.686;21.766;2023-03-12T16:30:47;10.45;;;4.25;;
35225;SDS011;21813;49.686;21.766;2023-03-12T16:33:13;7.88;;;4.60;;
35225;SDS011;21813;49.686;21.766;2023-03-12T16:35:41;8.10;;;4.38;;
35225;SDS011;21813;49.686;21.766;2023-03-12T16:38:07;9.43;;;4.57;;
35225;SDS011;21813;49.686;21.766;2023-03-12T16:40:34;10.60;;;4.28;;
35225;SDS011;21813;49.686;21.766;2023-03-12T16:43:02;11.38;;;4.53;;
35225;SDS011;21813;49.686;21.766;2023-03-12T16:45:30;12.38;;;5.13;;
35225;SDS011;21813;49.686;21.766;2023-03-12T16:48:01;11.95;;;6.05;;
35225;SDS011;21813;49.686;21.766;2023-03-12T16:50:29;16.98;;;7.68;;
35225;SDS011;21813;49.686;21.766;2023-03-12T16:52:55;19.50;;;8.80;;
35225;SDS011;21813;49.686;21.766;2023-03-12T16:55:22;14.50;;;7.40;;
35225;SDS011;21813;49.686;21.766;2023-03-12T16:57:59;15.98;;;8.05;;
35225;SDS011;21813;49.686;21.766;2023-03-12T17:00:27;16.48;;;7.68;;
35225;SDS011;21813;49.686;21.766;2023-03-12T17:02:56;13.35;;;6.63;;
35225;SDS011;21813;49.686;21.766;2023-03-12T17:05:27;12.52;;;6.82;;
35225;SDS011;21813;49.686;21.766;2023-03-12T17:07:54;15.82;;;6.75;;
35225;SDS011;21813;49.686;21.766;2023-03-12T17:10:21;16.83;;;6.80;;
35225;SDS011;21813;49.686;21.766;2023-03-12T17:12:48;17.02;;;7.25;;
35225;SDS011;21813;49.686;21.766;2023-03-12T17:15:18;12.30;;;7.30;;
35225;SDS011;21813;49.686;21.766;2023-03-12T17:17:48;19.17;;;8.45;;
35225;SDS011;21813;49.686;21.766;2023-03-12T17:20:15;17.98;;;8.27;;